sensor_id;sensor_type;location;lat;lon;timestamp;temperature;humidity
34833;DHT22;55941;50.800;4.342;2023-03-01T00:01:31;2.60;99.90
34833;DHT22;55941;50.800;4.342;2023-03-01T00:03:57;2.70;99.90
34833;DHT22;55941;50.800;4.342;2023-03-01T00:06:24;2.70;99.90
34833;DHT22;55941;50.800;4.342;2023-03-01T00:08:50;2.60;99.90
34833;DHT22;55941;50.800;4.342;2023-03-01T00:11:19;2.60;99.90
34833;DHT22;55941;50.800;4.342;2023-03-01T00:13:46;2.70;99.90
34833;DHT22;55941;50.800;4.342;2023-03-01T00:16:19;2.60;99.90
34833;DHT22;55941;50.800;4.342;2023-03-01T00:18:45;2.50;99.90
34833;DHT22;55941;50.800;4.342;2023-03-01T00:21:11;2.70;99.90
34833;DHT22;55941;50.800;4.342;2023-03-01T00:23:37;2.60;99.90
34833;DHT22;55941;50.800;4.342;2023-03-01T00:26:09;2.50;99.90
34833;DHT22;55941;50.800;4.342;2023-03-01T00:28:36;2.50;99.90
34833;DHT22;55941;50.800;4.342;2023-03-01T00:31:07;2.50;99.90
34833;DHT22;55941;50.800;4.342;2023-03-01T00:33:33;2.30;99.90
34833;DHT22;55941;50.800;4.342;2023-03-01T00:36:00;2.30;99.90
34833;DHT22;55941;50.800;4.342;2023-03-01T00:38:26;2.30;99.90
34833;DHT22;55941;50.800;4.342;2023-03-01T00:40:53;2.30;99.90
34833;DHT22;55941;50.800;4.342;2023-03-01T00:43:19;2.30;99.90
34833;DHT22;55941;50.800;4.342;2023-03-01T00:45:44;2.30;99.90
34833;DHT22;55941;50.800;4.342;2023-03-01T00:48:10;2.30;99.90
34833;DHT22;55941;50.800;4.342;2023-03-01T00:50:36;2.40;99.90
34833;DHT22;55941;50.800;4.342;2023-03-01T00:53:02;2.40;99.90
34833;DHT22;55941;50.800;4.342;2023-03-01T00:55:28;2.40;99.90
34833;DHT22;55941;50.800;4.342;2023-03-01T00:57:54;2.40;99.90
34833;DHT22;55941;50.800;4.342;2023-03-01T01:00:20;2.30;99.90
34833;DHT22;55941;50.800;4.342;2023-03-01T01:02:46;2.10;99.90
34833;DHT22;55941;50.800;4.342;2023-03-01T01:05:12;2.00;99.90
34833;DHT22;55941;50.800;4.342;2023-03-01T01:07:38;1.90;99.90
34833;DHT22;55941;50.800;4.342;2023-03-01T01:10:04;1.90;99.90
34833;DHT22;55941;50.800;4.342;2023-03-01T01:12:31;1.80;99.90
34833;DHT22;55941;50.800;4.342;2023-03-01T01:14:57;1.90;99.90
34833;DHT22;55941;50.800;4.342;2023-03-01T01:17:23;2.00;99.90
34833;DHT22;55941;50.800;4.342;2023-03-01T01:19:49;2.00;99.90
34833;DHT22;55941;50.800;4.342;2023-03-01T01:22:15;2.00;99.90
34833;DHT22;55941;50.800;4.342;2023-03-01T01:24:41;2.10;99.90
34833;DHT22;55941;50.800;4.342;2023-03-01T01:27:07;2.10;99.90
34833;DHT22;55941;50.800;4.342;2023-03-01T01:29:33;2.20;99.90
34833;DHT22;55941;50.800;4.342;2023-03-01T01:31:58;2.20;99.90
34833;DHT22;55941;50.800;4.342;2023-03-01T01:34:25;2.20;99.90
34833;DHT22;55941;50.800;4.342;2023-03-01T01:36:52;2.10;99.90
34833;DHT22;55941;50.800;4.342;2023-03-01T01:39:20;2.00;99.90
34833;DHT22;55941;50.800;4.342;2023-03-01T01:41:46;2.00;99.90
34833;DHT22;55941;50.800;4.342;2023-03-01T01:47:04;2.00;99.90
34833;DHT22;55941;50.800;4.342;2023-03-01T01:52:07;1.90;99.90
34833;DHT22;55941;50.800;4.342;2023-03-01T01:54:53;1.80;99.90
34833;DHT22;55941;50.800;4.342;2023-03-01T01:57:25;1.70;99.90
34833;DHT22;55941;50.800;4.342;2023-03-01T01:59:55;1.60;99.90
34833;DHT22;55941;50.800;4.342;2023-03-01T02:02:24;1.70;99.90
34833;DHT22;55941;50.800;4.342;2023-03-01T02:04:53;1.80;99.90
34833;DHT22;55941;50.800;4.342;2023-03-01T02:07:22;1.80;99.90
34833;DHT22;55941;50.800;4.342;2023-03-01T02:09:50;1.80;99.90
34833;DHT22;55941;50.800;4.342;2023-03-01T02:12:20;1.70;99.90
34833;DHT22;55941;50.800;4.342;2023-03-01T02:14:46;1.60;99.90
34833;DHT22;55941;50.800;4.342;2023-03-01T02:17:14;1.70;99.90
34833;DHT22;55941;50.800;4.342;2023-03-01T02:22:31;1.90;99.90
34833;DHT22;55941;50.800;4.342;2023-03-01T02:30:13;1.80;99.90
34833;DHT22;55941;50.800;4.342;2023-03-01T02:32:42;1.90;99.90
34833;DHT22;55941;50.800;4.342;2023-03-01T02:35:13;1.80;99.90
34833;DHT22;55941;50.800;4.342;2023-03-01T02:37:41;1.60;99.90
34833;DHT22;55941;50.800;4.342;2023-03-01T02:40:12;1.70;99.90
34833;DHT22;55941;50.800;4.342;2023-03-01T02:42:48;1.60;99.90
34833;DHT22;55941;50.800;4.342;2023-03-01T02:45:16;1.40;99.90
34833;DHT22;55941;50.800;4.342;2023-03-01T02:47:42;1.40;99.90
34833;DHT22;55941;50.800;4.342;2023-03-01T02:50:42;1.40;99.90
34833;DHT22;55941;50.800;4.342;2023-03-01T02:53:15;1.40;99.90
34833;DHT22;55941;50.800;4.342;2023-03-01T02:55:42;1.30;99.90
34833;DHT22;55941;50.800;4.342;2023-03-01T02:58:08;1.50;99.90
34833;DHT22;55941;50.800;4.342;2023-03-01T03:00:40;1.30;99.90
34833;DHT22;55941;50.800;4.342;2023-03-01T03:03:12;1.30;99.90
34833;DHT22;55941;50.800;4.342;2023-03-01T03:05:39;1.40;99.90
34833;DHT22;55941;50.800;4.342;2023-03-01T03:08:05;1.20;99.90
34833;DHT22;55941;50.800;4.342;2023-03-01T03:10:37;1.20;99.90
34833;DHT22;55941;50.800;4.342;2023-03-01T03:13:08;1.20;99.90
34833;DHT22;55941;50.800;4.342;2023-03-01T03:15:35;1.10;99.90
34833;DHT22;55941;50.800;4.342;2023-03-01T03:18:09;1.00;99.90
34833;DHT22;55941;50.800;4.342;2023-03-01T03:20:35;1.10;99.90
34833;DHT22;55941;50.800;4.342;2023-03-01T03:23:02;1.10;99.90
34833;DHT22;55941;50.800;4.342;2023-03-01T03:25:28;1.10;99.90
34833;DHT22;55941;50.800;4.342;2023-03-01T03:27:55;1.00;99.90
34833;DHT22;55941;50.800;4.342;2023-03-01T03:30:30;1.10;99.90
34833;DHT22;55941;50.800;4.342;2023-03-01T03:32:57;1.10;99.90
34833;DHT22;55941;50.800;4.342;2023-03-01T03:35:27;1.10;99.90
34833;DHT22;55941;50.800;4.342;2023-03-01T03:37:55;1.20;99.90
34833;DHT22;55941;50.800;4.342;2023-03-01T03:40:28;1.30;99.90
34833;DHT22;55941;50.800;4.342;2023-03-01T03:42:54;1.30;99.90
34833;DHT22;55941;50.800;4.342;2023-03-01T03:45:20;1.20;99.90
34833;DHT22;55941;50.800;4.342;2023-03-01T03:47:47;1.20;99.90
34833;DHT22;55941;50.800;4.342;2023-03-01T03:50:15;1.20;99.90
34833;DHT22;55941;50.800;4.342;2023-03-01T03:52:42;1.30;99.90
34833;DHT22;55941;50.800;4.342;2023-03-01T03:55:10;1.20;99.90
34833;DHT22;55941;50.800;4.342;2023-03-01T03:57:37;1.20;99.90
34833;DHT22;55941;50.800;4.342;2023-03-01T04:00:05;1.10;99.90
34833;DHT22;55941;50.800;4.342;2023-03-01T04:02:40;1.10;99.90
34833;DHT22;55941;50.800;4.342;2023-03-01T04:05:06;1.20;99.90
34833;DHT22;55941;50.800;4.342;2023-03-01T04:07:34;1.00;99.90
34833;DHT22;55941;50.800;4.342;2023-03-01T04:10:04;0.90;99.90
34833;DHT22;55941;50.800;4.342;2023-03-01T04:12:30;1.00;99.90
34833;DHT22;55941;50.800;4.342;2023-03-01T04:14:56;0.90;99.90
34833;DHT22;55941;50.800;4.342;2023-03-01T04:17:22;0.80;99.90
34833;DHT22;55941;50.800;4.342;2023-03-01T04:19:47;0.80;99.90
34833;DHT22;55941;50.800;4.342;2023-03-01T04:22:14;0.90;99.90
34833;DHT22;55941;50.800;4.342;2023-03-01T04:24:44;1.10;99.90
34833;DHT22;55941;50.800;4.342;2023-03-01T04:27:10;1.00;99.90
34833;DHT22;55941;50.800;4.342;2023-03-01T04:29:36;0.90;99.90
34833;DHT22;55941;50.800;4.342;2023-03-01T04:32:02;0.90;99.90
34833;DHT22;55941;50.800;4.342;2023-03-01T04:34:29;0.70;99.90
34833;DHT22;55941;50.800;4.342;2023-03-01T04:36:55;0.70;99.90
34833;DHT22;55941;50.800;4.342;2023-03-01T04:39:21;0.90;99.90
34833;DHT22;55941;50.800;4.342;2023-03-01T04:41:47;0.70;99.90
34833;DHT22;55941;50.800;4.342;2023-03-01T04:44:13;0.70;99.90
34833;DHT22;55941;50.800;4.342;2023-03-01T04:46:39;0.80;99.90
34833;DHT22;55941;50.800;4.342;2023-03-01T04:49:05;0.80;99.90
34833;DHT22;55941;50.800;4.342;2023-03-01T04:51:31;0.90;99.90
34833;DHT22;55941;50.800;4.342;2023-03-01T04:53:58;0.80;99.90
34833;DHT22;55941;50.800;4.342;2023-03-01T04:56:24;0.90;99.90
34833;DHT22;55941;50.800;4.342;2023-03-01T04:58:52;1.00;99.90
34833;DHT22;55941;50.800;4.342;2023-03-01T05:01:20;0.90;99.90
34833;DHT22;55941;50.800;4.342;2023-03-01T05:03:50;0.90;99.90
34833;DHT22;55941;50.800;4.342;2023-03-01T05:06:17;0.90;99.90
34833;DHT22;55941;50.800;4.342;2023-03-01T05:08:44;0.90;99.90
34833;DHT22;55941;50.800;4.342;2023-03-01T05:11:10;1.00;99.90
34833;DHT22;55941;50.800;4.342;2023-03-01T05:13:38;0.90;99.90
34833;DHT22;55941;50.800;4.342;2023-03-01T05:16:06;1.00;99.90
34833;DHT22;55941;50.800;4.342;2023-03-01T05:18:37;1.00;99.90
34833;DHT22;55941;50.800;4.342;2023-03-01T05:21:12;0.90;99.90
34833;DHT22;55941;50.800;4.342;2023-03-01T05:23:38;0.80;99.90
34833;DHT22;55941;50.800;4.342;2023-03-01T05:26:06;0.70;99.90
34833;DHT22;55941;50.800;4.342;2023-03-01T05:28:32;0.70;99.90
34833;DHT22;55941;50.800;4.342;2023-03-01T05:30:58;0.70;99.90
34833;DHT22;55941;50.800;4.342;2023-03-01T05:33:25;0.70;99.90
34833;DHT22;55941;50.800;4.342;2023-03-01T05:35:52;0.80;99.90
34833;DHT22;55941;50.800;4.342;2023-03-01T05:38:20;1.00;99.90
34833;DHT22;55941;50.800;4.342;2023-03-01T05:40:48;0.90;99.90
34833;DHT22;55941;50.800;4.342;2023-03-01T05:43:15;0.90;99.90
34833;DHT22;55941;50.800;4.342;2023-03-01T05:45:41;0.80;99.90
34833;DHT22;55941;50.800;4.342;2023-03-01T05:48:09;0.80;99.90
34833;DHT22;55941;50.800;4.342;2023-03-01T05:50:39;0.70;99.90
34833;DHT22;55941;50.800;4.342;2023-03-01T05:53:09;0.60;99.90
34833;DHT22;55941;50.800;4.342;2023-03-01T05:55:35;0.70;99.90
34833;DHT22;55941;50.800;4.342;2023-03-01T05:58:03;0.50;99.90
34833;DHT22;55941;50.800;4.342;2023-03-01T06:00:30;0.50;99.90
34833;DHT22;55941;50.800;4.342;2023-03-01T06:02:58;0.50;99.90
34833;DHT22;55941;50.800;4.342;2023-03-01T06:05:25;0.50;99.90
34833;DHT22;55941;50.800;4.342;2023-03-01T06:07:51;0.40;99.90
34833;DHT22;55941;50.800;4.342;2023-03-01T06:10:20;0.40;99.90
34833;DHT22;55941;50.800;4.342;2023-03-01T06:12:47;0.50;99.90
34833;DHT22;55941;50.800;4.342;2023-03-01T06:15:14;0.60;99.90
34833;DHT22;55941;50.800;4.342;2023-03-01T06:17:42;0.40;99.90
34833;DHT22;55941;50.800;4.342;2023-03-01T06:20:17;0.20;99.90
34833;DHT22;55941;50.800;4.342;2023-03-01T06:22:44;0.10;99.90
34833;DHT22;55941;50.800;4.342;2023-03-01T06:25:11;0.20;99.90
34833;DHT22;55941;50.800;4.342;2023-03-01T06:27:38;0.30;99.90
34833;DHT22;55941;50.800;4.342;2023-03-01T06:30:05;0.20;99.90
34833;DHT22;55941;50.800;4.342;2023-03-01T06:32:32;0.20;99.90
34833;DHT22;55941;50.800;4.342;2023-03-01T06:34:58;0.20;99.90
34833;DHT22;55941;50.800;4.342;2023-03-01T06:37:25;0.10;99.90
34833;DHT22;55941;50.800;4.342;2023-03-01T06:39:51;0.10;99.90
34833;DHT22;55941;50.800;4.342;2023-03-01T06:42:17;0.20;99.90
34833;DHT22;55941;50.800;4.342;2023-03-01T06:44:44;0.20;99.90
34833;DHT22;55941;50.800;4.342;2023-03-01T06:47:10;0.30;99.90
34833;DHT22;55941;50.800;4.342;2023-03-01T06:49:35;0.20;99.90
34833;DHT22;55941;50.800;4.342;2023-03-01T06:52:02;0.50;99.90
34833;DHT22;55941;50.800;4.342;2023-03-01T06:54:28;0.50;99.90
34833;DHT22;55941;50.800;4.342;2023-03-01T06:56:54;0.50;99.90
34833;DHT22;55941;50.800;4.342;2023-03-01T06:59:20;0.50;99.90
34833;DHT22;55941;50.800;4.342;2023-03-01T07:01:46;0.50;99.90
34833;DHT22;55941;50.800;4.342;2023-03-01T07:04:13;0.50;99.90
34833;DHT22;55941;50.800;4.342;2023-03-01T07:06:39;0.50;99.90
34833;DHT22;55941;50.800;4.342;2023-03-01T07:09:05;0.50;99.90
34833;DHT22;55941;50.800;4.342;2023-03-01T07:11:31;0.40;99.90
34833;DHT22;55941;50.800;4.342;2023-03-01T07:13:57;0.30;99.90
34833;DHT22;55941;50.800;4.342;2023-03-01T07:16:25;0.40;99.90
34833;DHT22;55941;50.800;4.342;2023-03-01T07:18:51;0.40;99.90
34833;DHT22;55941;50.800;4.342;2023-03-01T07:21:17;0.40;99.90
34833;DHT22;55941;50.800;4.342;2023-03-01T07:23:43;0.60;99.90
34833;DHT22;55941;50.800;4.342;2023-03-01T07:26:09;0.70;99.90
34833;DHT22;55941;50.800;4.342;2023-03-01T07:28:34;0.70;99.90
34833;DHT22;55941;50.800;4.342;2023-03-01T07:31:05;0.60;99.90
34833;DHT22;55941;50.800;4.342;2023-03-01T07:33:32;0.50;99.90
34833;DHT22;55941;50.800;4.342;2023-03-01T07:35:58;0.80;99.90
34833;DHT22;55941;50.800;4.342;2023-03-01T07:38:25;0.80;99.90
34833;DHT22;55941;50.800;4.342;2023-03-01T07:40:52;0.70;99.90
34833;DHT22;55941;50.800;4.342;2023-03-01T07:43:18;0.80;99.90
34833;DHT22;55941;50.800;4.342;2023-03-01T07:45:44;0.90;99.90
34833;DHT22;55941;50.800;4.342;2023-03-01T07:48:10;1.00;99.90
34833;DHT22;55941;50.800;4.342;2023-03-01T07:50:36;1.10;99.90
34833;DHT22;55941;50.800;4.342;2023-03-01T07:53:02;1.20;99.90
34833;DHT22;55941;50.800;4.342;2023-03-01T07:55:28;1.00;99.90
34833;DHT22;55941;50.800;4.342;2023-03-01T07:57:54;1.00;99.90
34833;DHT22;55941;50.800;4.342;2023-03-01T08:00:22;1.20;99.90
34833;DHT22;55941;50.800;4.342;2023-03-01T08:02:48;1.10;99.90
34833;DHT22;55941;50.800;4.342;2023-03-01T08:05:14;1.30;99.90
34833;DHT22;55941;50.800;4.342;2023-03-01T08:07:41;1.30;99.90
34833;DHT22;55941;50.800;4.342;2023-03-01T08:10:07;1.40;99.90
34833;DHT22;55941;50.800;4.342;2023-03-01T08:12:33;1.40;99.90
34833;DHT22;55941;50.800;4.342;2023-03-01T08:14:59;1.40;99.90
34833;DHT22;55941;50.800;4.342;2023-03-01T08:17:26;1.40;99.90
34833;DHT22;55941;50.800;4.342;2023-03-01T08:19:52;1.50;99.90
34833;DHT22;55941;50.800;4.342;2023-03-01T08:22:18;1.60;99.90
34833;DHT22;55941;50.800;4.342;2023-03-01T08:24:43;1.70;99.90
34833;DHT22;55941;50.800;4.342;2023-03-01T08:27:11;1.80;99.90
34833;DHT22;55941;50.800;4.342;2023-03-01T08:29:38;1.80;99.90
34833;DHT22;55941;50.800;4.342;2023-03-01T08:32:04;1.90;99.90
34833;DHT22;55941;50.800;4.342;2023-03-01T08:34:30;2.00;99.90
34833;DHT22;55941;50.800;4.342;2023-03-01T08:36:56;2.00;99.90
34833;DHT22;55941;50.800;4.342;2023-03-01T08:39:22;1.90;99.90
34833;DHT22;55941;50.800;4.342;2023-03-01T08:41:48;1.90;99.90
34833;DHT22;55941;50.800;4.342;2023-03-01T08:44:15;2.10;99.90
34833;DHT22;55941;50.800;4.342;2023-03-01T08:46:42;2.10;99.90
34833;DHT22;55941;50.800;4.342;2023-03-01T08:49:13;2.30;99.90
34833;DHT22;55941;50.800;4.342;2023-03-01T08:51:39;2.30;99.90
34833;DHT22;55941;50.800;4.342;2023-03-01T08:54:15;2.40;99.90
34833;DHT22;55941;50.800;4.342;2023-03-01T08:56:41;2.20;99.90
34833;DHT22;55941;50.800;4.342;2023-03-01T08:59:07;2.30;99.90
34833;DHT22;55941;50.800;4.342;2023-03-01T09:01:33;2.40;99.90
34833;DHT22;55941;50.800;4.342;2023-03-01T09:03:59;2.30;99.90
34833;DHT22;55941;50.800;4.342;2023-03-01T09:06:25;2.50;99.90
34833;DHT22;55941;50.800;4.342;2023-03-01T09:08:51;2.60;99.90
34833;DHT22;55941;50.800;4.342;2023-03-01T09:11:20;2.70;99.90
34833;DHT22;55941;50.800;4.342;2023-03-01T09:13:47;2.90;99.90
34833;DHT22;55941;50.800;4.342;2023-03-01T09:16:15;2.90;99.90
34833;DHT22;55941;50.800;4.342;2023-03-01T09:18:43;3.00;99.90
34833;DHT22;55941;50.800;4.342;2023-03-01T09:21:12;3.00;99.90
34833;DHT22;55941;50.800;4.342;2023-03-01T09:23:41;3.10;99.90
34833;DHT22;55941;50.800;4.342;2023-03-01T09:26:10;3.00;99.90
34833;DHT22;55941;50.800;4.342;2023-03-01T09:28:37;3.10;99.90
34833;DHT22;55941;50.800;4.342;2023-03-01T09:31:03;3.30;99.90
34833;DHT22;55941;50.800;4.342;2023-03-01T09:33:30;3.40;99.90
34833;DHT22;55941;50.800;4.342;2023-03-01T09:36:02;3.50;99.90
34833;DHT22;55941;50.800;4.342;2023-03-01T09:38:28;3.40;99.90
34833;DHT22;55941;50.800;4.342;2023-03-01T09:40:54;3.50;99.90
34833;DHT22;55941;50.800;4.342;2023-03-01T09:43:41;3.50;99.90
34833;DHT22;55941;50.800;4.342;2023-03-01T09:46:10;3.60;99.90
34833;DHT22;55941;50.800;4.342;2023-03-01T09:48:44;3.60;99.90
34833;DHT22;55941;50.800;4.342;2023-03-01T09:51:18;3.60;99.90
34833;DHT22;55941;50.800;4.342;2023-03-01T09:53:45;3.60;99.90
34833;DHT22;55941;50.800;4.342;2023-03-01T09:56:28;3.60;99.90
34833;DHT22;55941;50.800;4.342;2023-03-01T09:59:06;3.40;99.90
34833;DHT22;55941;50.800;4.342;2023-03-01T10:09:49;3.80;99.90
34833;DHT22;55941;50.800;4.342;2023-03-01T10:12:20;3.90;99.90
34833;DHT22;55941;50.800;4.342;2023-03-01T10:15:22;3.90;99.90
34833;DHT22;55941;50.800;4.342;2023-03-01T10:18:01;4.00;99.90
34833;DHT22;55941;50.800;4.342;2023-03-01T10:20:43;4.00;99.90
34833;DHT22;55941;50.800;4.342;2023-03-01T10:23:12;4.10;99.90
34833;DHT22;55941;50.800;4.342;2023-03-01T10:26:00;4.20;99.90
34833;DHT22;55941;50.800;4.342;2023-03-01T10:31:22;4.30;99.90
34833;DHT22;55941;50.800;4.342;2023-03-01T10:33:53;4.50;99.90
34833;DHT22;55941;50.800;4.342;2023-03-01T10:36:22;4.60;99.90
34833;DHT22;55941;50.800;4.342;2023-03-01T10:38:56;4.60;99.90
34833;DHT22;55941;50.800;4.342;2023-03-01T10:41:25;4.80;99.90
34833;DHT22;55941;50.800;4.342;2023-03-01T10:43:56;4.90;99.90
34833;DHT22;55941;50.800;4.342;2023-03-01T10:46:27;5.00;99.90
34833;DHT22;55941;50.800;4.342;2023-03-01T10:49:16;5.10;99.90
34833;DHT22;55941;50.800;4.342;2023-03-01T10:51:45;5.40;99.90
34833;DHT22;55941;50.800;4.342;2023-03-01T10:54:31;5.50;99.90
34833;DHT22;55941;50.800;4.342;2023-03-01T10:57:01;5.50;99.90
34833;DHT22;55941;50.800;4.342;2023-03-01T10:59:33;5.30;99.90
34833;DHT22;55941;50.800;4.342;2023-03-01T11:02:17;5.50;99.90
34833;DHT22;55941;50.800;4.342;2023-03-01T11:05:00;5.60;99.90
34833;DHT22;55941;50.800;4.342;2023-03-01T11:07:26;6.10;99.90
34833;DHT22;55941;50.800;4.342;2023-03-01T11:09:53;6.30;99.50
34833;DHT22;55941;50.800;4.342;2023-03-01T11:12:20;6.60;98.80
34833;DHT22;55941;50.800;4.342;2023-03-01T11:14:49;6.70;97.90
34833;DHT22;55941;50.800;4.342;2023-03-01T11:17:35;6.60;98.00
34833;DHT22;55941;50.800;4.342;2023-03-01T11:23:08;6.80;97.60
34833;DHT22;55941;50.800;4.342;2023-03-01T11:25:39;7.20;96.40
34833;DHT22;55941;50.800;4.342;2023-03-01T11:28:11;7.30;96.40
34833;DHT22;55941;50.800;4.342;2023-03-01T11:33:48;7.60;95.30
34833;DHT22;55941;50.800;4.342;2023-03-01T11:38:41;7.40;94.50
34833;DHT22;55941;50.800;4.342;2023-03-01T11:41:17;7.50;94.80
34833;DHT22;55941;50.800;4.342;2023-03-01T11:43:55;7.70;94.70
34833;DHT22;55941;50.800;4.342;2023-03-01T11:46:40;7.90;93.80
34833;DHT22;55941;50.800;4.342;2023-03-01T11:58:05;9.90;88.80
34833;DHT22;55941;50.800;4.342;2023-03-01T12:06:55;11.00;83.10
34833;DHT22;55941;50.800;4.342;2023-03-01T12:12:28;12.30;74.30
34833;DHT22;55941;50.800;4.342;2023-03-01T12:15:01;12.60;70.60
34833;DHT22;55941;50.800;4.342;2023-03-01T12:20:25;13.00;67.50
34833;DHT22;55941;50.800;4.342;2023-03-01T12:25:48;13.70;61.50
34833;DHT22;55941;50.800;4.342;2023-03-01T12:39:38;14.80;57.10
34833;DHT22;55941;50.800;4.342;2023-03-01T12:48:08;15.40;55.30
34833;DHT22;55941;50.800;4.342;2023-03-01T12:50:42;15.70;54.80
34833;DHT22;55941;50.800;4.342;2023-03-01T12:53:31;15.70;54.40
34833;DHT22;55941;50.800;4.342;2023-03-01T12:56:10;16.00;54.00
34833;DHT22;55941;50.800;4.342;2023-03-01T13:02:31;16.30;51.30
34833;DHT22;55941;50.800;4.342;2023-03-01T13:17:49;16.10;50.10
34833;DHT22;55941;50.800;4.342;2023-03-01T13:20:18;16.20;49.80
34833;DHT22;55941;50.800;4.342;2023-03-01T13:22:46;16.30;49.60
34833;DHT22;55941;50.800;4.342;2023-03-01T13:25:18;15.70;49.90
34833;DHT22;55941;50.800;4.342;2023-03-01T13:27:46;15.70;50.40
34833;DHT22;55941;50.800;4.342;2023-03-01T13:35:55;15.70;49.30
34833;DHT22;55941;50.800;4.342;2023-03-01T13:41:04;15.40;50.00
34833;DHT22;55941;50.800;4.342;2023-03-01T13:43:33;15.30;49.70
34833;DHT22;55941;50.800;4.342;2023-03-01T13:46:02;15.50;48.70
34833;DHT22;55941;50.800;4.342;2023-03-01T13:48:33;15.70;48.80
34833;DHT22;55941;50.800;4.342;2023-03-01T13:51:02;16.00;48.60
34833;DHT22;55941;50.800;4.342;2023-03-01T13:53:35;15.40;49.40
34833;DHT22;55941;50.800;4.342;2023-03-01T13:56:08;15.70;48.50
34833;DHT22;55941;50.800;4.342;2023-03-01T13:58:47;15.90;47.30
34833;DHT22;55941;50.800;4.342;2023-03-01T14:01:22;15.70;47.50
34833;DHT22;55941;50.800;4.342;2023-03-01T14:03:49;16.00;47.70
34833;DHT22;55941;50.800;4.342;2023-03-01T14:06:20;16.20;47.50
34833;DHT22;55941;50.800;4.342;2023-03-01T14:08:48;16.30;47.00
34833;DHT22;55941;50.800;4.342;2023-03-01T14:20:20;16.30;47.30
34833;DHT22;55941;50.800;4.342;2023-03-01T14:22:47;16.50;46.60
34833;DHT22;55941;50.800;4.342;2023-03-01T14:25:30;16.70;45.50
34833;DHT22;55941;50.800;4.342;2023-03-01T14:28:16;16.50;46.00
34833;DHT22;55941;50.800;4.342;2023-03-01T14:30:45;16.60;45.70
34833;DHT22;55941;50.800;4.342;2023-03-01T14:33:37;16.30;45.10
34833;DHT22;55941;50.800;4.342;2023-03-01T14:36:11;15.20;46.40
34833;DHT22;55941;50.800;4.342;2023-03-01T14:38:45;15.70;45.80
34833;DHT22;55941;50.800;4.342;2023-03-01T14:41:18;15.90;45.60
34833;DHT22;55941;50.800;4.342;2023-03-01T14:43:55;15.80;46.10
34833;DHT22;55941;50.800;4.342;2023-03-01T14:46:29;15.80;46.60
34833;DHT22;55941;50.800;4.342;2023-03-01T14:49:04;16.00;46.40
34833;DHT22;55941;50.800;4.342;2023-03-01T14:51:34;16.00;45.80
34833;DHT22;55941;50.800;4.342;2023-03-01T14:54:00;16.00;46.70
34833;DHT22;55941;50.800;4.342;2023-03-01T14:56:26;15.70;46.60
34833;DHT22;55941;50.800;4.342;2023-03-01T14:58:53;15.60;46.40
34833;DHT22;55941;50.800;4.342;2023-03-01T15:01:23;16.10;46.70
34833;DHT22;55941;50.800;4.342;2023-03-01T15:03:50;16.70;45.90
34833;DHT22;55941;50.800;4.342;2023-03-01T15:06:21;16.70;45.10
34833;DHT22;55941;50.800;4.342;2023-03-01T15:08:50;16.50;45.60
34833;DHT22;55941;50.800;4.342;2023-03-01T15:11:27;16.10;45.80
34833;DHT22;55941;50.800;4.342;2023-03-01T15:13:54;15.60;46.60
34833;DHT22;55941;50.800;4.342;2023-03-01T15:16:24;15.10;47.10
34833;DHT22;55941;50.800;4.342;2023-03-01T15:18:54;14.80;48.40
34833;DHT22;55941;50.800;4.342;2023-03-01T15:21:24;14.50;48.50
34833;DHT22;55941;50.800;4.342;2023-03-01T15:23:55;14.30;48.70
34833;DHT22;55941;50.800;4.342;2023-03-01T15:26:36;13.90;49.20
34833;DHT22;55941;50.800;4.342;2023-03-01T15:29:03;13.60;50.00
34833;DHT22;55941;50.800;4.342;2023-03-01T15:31:37;13.10;50.40
34833;DHT22;55941;50.800;4.342;2023-03-01T15:34:09;12.70;51.30
34833;DHT22;55941;50.800;4.342;2023-03-01T15:36:44;12.50;52.10
34833;DHT22;55941;50.800;4.342;2023-03-01T15:39:37;12.00;53.10
34833;DHT22;55941;50.800;4.342;2023-03-01T15:42:12;11.80;53.80
34833;DHT22;55941;50.800;4.342;2023-03-01T15:44:40;11.10;55.10
34833;DHT22;55941;50.800;4.342;2023-03-01T15:47:29;10.90;55.80
34833;DHT22;55941;50.800;4.342;2023-03-01T15:49:57;10.70;56.40
34833;DHT22;55941;50.800;4.342;2023-03-01T15:52:33;10.40;56.60
34833;DHT22;55941;50.800;4.342;2023-03-01T15:55:05;9.70;58.70
34833;DHT22;55941;50.800;4.342;2023-03-01T15:57:31;9.70;58.70
34833;DHT22;55941;50.800;4.342;2023-03-01T15:59:58;9.50;59.40
34833;DHT22;55941;50.800;4.342;2023-03-01T16:02:24;9.30;60.10
34833;DHT22;55941;50.800;4.342;2023-03-01T16:04:51;9.30;60.00
34833;DHT22;55941;50.800;4.342;2023-03-01T16:07:19;9.30;60.30
34833;DHT22;55941;50.800;4.342;2023-03-01T16:09:45;9.30;60.70
34833;DHT22;55941;50.800;4.342;2023-03-01T16:12:15;9.10;60.90
34833;DHT22;55941;50.800;4.342;2023-03-01T16:14:42;9.10;60.90
34833;DHT22;55941;50.800;4.342;2023-03-01T16:17:08;9.00;61.10
34833;DHT22;55941;50.800;4.342;2023-03-01T16:19:36;9.10;61.40
34833;DHT22;55941;50.800;4.342;2023-03-01T16:22:03;9.00;61.90
34833;DHT22;55941;50.800;4.342;2023-03-01T16:24:30;9.00;62.00
34833;DHT22;55941;50.800;4.342;2023-03-01T16:26:55;9.00;61.90
34833;DHT22;55941;50.800;4.342;2023-03-01T16:29:21;8.80;62.00
34833;DHT22;55941;50.800;4.342;2023-03-01T16:31:47;8.80;62.50
34833;DHT22;55941;50.800;4.342;2023-03-01T16:34:13;8.70;62.50
34833;DHT22;55941;50.800;4.342;2023-03-01T16:36:39;8.70;62.40
34833;DHT22;55941;50.800;4.342;2023-03-01T16:39:09;8.60;62.40
34833;DHT22;55941;50.800;4.342;2023-03-01T16:41:35;8.40;63.20
34833;DHT22;55941;50.800;4.342;2023-03-01T16:44:01;8.50;62.80
34833;DHT22;55941;50.800;4.342;2023-03-01T16:46:29;8.40;62.60
34833;DHT22;55941;50.800;4.342;2023-03-01T16:48:55;8.40;63.10
34833;DHT22;55941;50.800;4.342;2023-03-01T16:51:22;8.30;63.80
34833;DHT22;55941;50.800;4.342;2023-03-01T16:53:50;8.20;63.90
34833;DHT22;55941;50.800;4.342;2023-03-01T16:56:16;8.20;63.80
34833;DHT22;55941;50.800;4.342;2023-03-01T16:58:42;8.20;63.80
34833;DHT22;55941;50.800;4.342;2023-03-01T17:01:17;8.20;64.00
34833;DHT22;55941;50.800;4.342;2023-03-01T17:03:45;8.10;64.30
34833;DHT22;55941;50.800;4.342;2023-03-01T17:06:14;8.10;64.50
34833;DHT22;55941;50.800;4.342;2023-03-01T17:08:41;8.10;64.20
34833;DHT22;55941;50.800;4.342;2023-03-01T17:11:14;8.10;64.50
34833;DHT22;55941;50.800;4.342;2023-03-01T17:13:41;7.80;65.30
34833;DHT22;55941;50.800;4.342;2023-03-01T17:16:10;7.50;66.70
34833;DHT22;55941;50.800;4.342;2023-03-01T17:18:37;7.40;67.00
34833;DHT22;55941;50.800;4.342;2023-03-01T17:21:04;7.30;68.20
34833;DHT22;55941;50.800;4.342;2023-03-01T17:23:31;7.10;69.20
34833;DHT22;55941;50.800;4.342;2023-03-01T17:25:58;7.20;69.50
34833;DHT22;55941;50.800;4.342;2023-03-01T17:28:28;7.30;69.50
34833;DHT22;55941;50.800;4.342;2023-03-01T17:30:55;7.30;69.60
34833;DHT22;55941;50.800;4.342;2023-03-01T17:33:21;7.30;69.40
34833;DHT22;55941;50.800;4.342;2023-03-01T17:35:47;7.30;69.90
34833;DHT22;55941;50.800;4.342;2023-03-01T17:38:14;7.40;69.70
34833;DHT22;55941;50.800;4.342;2023-03-01T17:40:42;7.40;69.90
34833;DHT22;55941;50.800;4.342;2023-03-01T17:43:11;7.20;70.80